sensor_id;sensor_type;location;lat;lon;timestamp;P1;durP1;ratioP1;P2;durP2;ratioP2
31336;SDS011;22846;42.654;23.314;2024-03-08T00:00:28;14.75;;;10.85;;
31336;SDS011;22846;42.654;23.314;2024-03-08T00:02:54;15.02;;;10.85;;
31336;SDS011;22846;42.654;23.314;2024-03-08T00:05:19;16.63;;;10.82;;
31336;SDS011;22846;42.654;23.314;2024-03-08T00:07:45;13.32;;;9.80;;
31336;SDS011;22846;42.654;23.314;2024-03-08T00:10:11;15.25;;;10.52;;
31336;SDS011;22846;42.654;23.314;2024-03-08T00:12:38;14.88;;;10.27;;
31336;SDS011;22846;42.654;23.314;2024-03-08T00:15:07;14.35;;;10.65;;
31336;SDS011;22846;42.654;23.314;2024-03-08T00:17:34;15.18;;;10.13;;
31336;SDS011;22846;42.654;23.314;2024-03-08T00:20:00;13.57;;;9.70;;
31336;SDS011;22846;42.654;23.314;2024-03-08T00:22:25;12.82;;;9.88;;
31336;SDS011;22846;42.654;23.314;2024-03-08T00:24:50;11.85;;;9.02;;
31336;SDS011;22846;42.654;23.314;2024-03-08T00:27:16;13.57;;;8.70;;
31336;SDS011;22846;42.654;23.314;2024-03-08T00:29:41;11.68;;;8.90;;
31336;SDS011;22846;42.654;23.314;2024-03-08T00:32:07;12.18;;;8.60;;
31336;SDS011;22846;42.654;23.314;2024-03-08T00:34:34;13.88;;;8.98;;
31336;SDS011;22846;42.654;23.314;2024-03-08T00:37:01;12.25;;;8.77;;
31336;SDS011;22846;42.654;23.314;2024-03-08T00:39:27;12.23;;;8.40;;
31336;SDS011;22846;42.654;23.314;2024-03-08T00:41:52;11.38;;;8.50;;
31336;SDS011;22846;42.654;23.314;2024-03-08T00:44:18;12.63;;;8.30;;
31336;SDS011;22846;42.654;23.314;2024-03-08T00:46:43;11.15;;;8.35;;
31336;SDS011;22846;42.654;23.314;2024-03-08T00:49:09;9.93;;;7.43;;
31336;SDS011;22846;42.654;23.314;2024-03-08T00:51:34;10.52;;;7.38;;
31336;SDS011;22846;42.654;23.314;2024-03-08T00:53:59;10.45;;;8.20;;
31336;SDS011;22846;42.654;23.314;2024-03-08T00:56:25;10.60;;;7.63;;
31336;SDS011;22846;42.654;23.314;2024-03-08T00:58:50;10.90;;;7.55;;
31336;SDS011;22846;42.654;23.314;2024-03-08T01:01:17;9.35;;;7.10;;
31336;SDS011;22846;42.654;23.314;2024-03-08T01:03:43;10.70;;;7.47;;
31336;SDS011;22846;42.654;23.314;2024-03-08T01:06:09;8.75;;;6.88;;
31336;SDS011;22846;42.654;23.314;2024-03-08T01:08:34;9.00;;;6.63;;
31336;SDS011;22846;42.654;23.314;2024-03-08T01:11:03;9.63;;;6.93;;
31336;SDS011;22846;42.654;23.314;2024-03-08T01:13:31;8.77;;;6.15;;
31336;SDS011;22846;42.654;23.314;2024-03-08T01:15:56;8.75;;;6.30;;
31336;SDS011;22846;42.654;23.314;2024-03-08T01:18:22;9.55;;;6.82;;
31336;SDS011;22846;42.654;23.314;2024-03-08T01:20:47;8.32;;;6.32;;
31336;SDS011;22846;42.654;23.314;2024-03-08T01:23:13;6.60;;;5.90;;
31336;SDS011;22846;42.654;23.314;2024-03-08T01:25:38;8.35;;;6.00;;
31336;SDS011;22846;42.654;23.314;2024-03-08T01:28:04;7.10;;;5.60;;
31336;SDS011;22846;42.654;23.314;2024-03-08T01:30:30;7.65;;;6.15;;
31336;SDS011;22846;42.654;23.314;2024-03-08T01:32:57;7.95;;;6.13;;
31336;SDS011;22846;42.654;23.314;2024-03-08T01:35:23;7.63;;;5.97;;
31336;SDS011;22846;42.654;23.314;2024-03-08T01:37:49;7.90;;;5.43;;
31336;SDS011;22846;42.654;23.314;2024-03-08T01:40:14;8.07;;;5.60;;
31336;SDS011;22846;42.654;23.314;2024-03-08T01:42:41;7.38;;;5.75;;
31336;SDS011;22846;42.654;23.314;2024-03-08T01:45:07;7.72;;;5.93;;
31336;SDS011;22846;42.654;23.314;2024-03-08T01:47:33;7.35;;;5.40;;
31336;SDS011;22846;42.654;23.314;2024-03-08T01:49:59;6.18;;;4.95;;
31336;SDS011;22846;42.654;23.314;2024-03-08T01:52:26;7.55;;;5.57;;
31336;SDS011;22846;42.654;23.314;2024-03-08T01:54:53;6.00;;;4.68;;
31336;SDS011;22846;42.654;23.314;2024-03-08T01:57:20;6.50;;;4.93;;
31336;SDS011;22846;42.654;23.314;2024-03-08T01:59:46;5.97;;;4.97;;
31336;SDS011;22846;42.654;23.314;2024-03-08T02:02:11;6.75;;;5.13;;
31336;SDS011;22846;42.654;23.314;2024-03-08T02:04:42;6.28;;;4.85;;
31336;SDS011;22846;42.654;23.314;2024-03-08T02:07:07;6.13;;;4.60;;
31336;SDS011;22846;42.654;23.314;2024-03-08T02:09:33;5.07;;;4.53;;
31336;SDS011;22846;42.654;23.314;2024-03-08T02:11:58;5.85;;;4.60;;
31336;SDS011;22846;42.654;23.314;2024-03-08T02:14:23;6.40;;;4.82;;
31336;SDS011;22846;42.654;23.314;2024-03-08T02:16:49;5.88;;;4.28;;
31336;SDS011;22846;42.654;23.314;2024-03-08T02:19:16;6.03;;;4.60;;
31336;SDS011;22846;42.654;23.314;2024-03-08T02:21:41;5.78;;;4.88;;
31336;SDS011;22846;42.654;23.314;2024-03-08T02:24:07;5.97;;;4.65;;
31336;SDS011;22846;42.654;23.314;2024-03-08T02:26:32;5.38;;;4.40;;
31336;SDS011;22846;42.654;23.314;2024-03-08T02:28:57;5.63;;;4.15;;
31336;SDS011;22846;42.654;23.314;2024-03-08T02:31:23;5.35;;;4.30;;
31336;SDS011;22846;42.654;23.314;2024-03-08T02:33:48;5.18;;;3.95;;
31336;SDS011;22846;42.654;23.314;2024-03-08T02:36:14;4.93;;;4.05;;
31336;SDS011;22846;42.654;23.314;2024-03-08T02:38:39;4.63;;;3.90;;
31336;SDS011;22846;42.654;23.314;2024-03-08T02:41:07;5.03;;;3.78;;
31336;SDS011;22846;42.654;23.314;2024-03-08T02:43:33;5.45;;;3.67;;
31336;SDS011;22846;42.654;23.314;2024-03-08T02:45:59;4.75;;;3.90;;
31336;SDS011;22846;42.654;23.314;2024-03-08T02:48:25;4.45;;;3.45;;
31336;SDS011;22846;42.654;23.314;2024-03-08T02:50:50;4.10;;;3.25;;
31336;SDS011;22846;42.654;23.314;2024-03-08T02:53:16;4.50;;;3.63;;
31336;SDS011;22846;42.654;23.314;2024-03-08T02:55:43;4.15;;;3.38;;
31336;SDS011;22846;42.654;23.314;2024-03-08T02:58:09;3.70;;;3.25;;
31336;SDS011;22846;42.654;23.314;2024-03-08T03:00:35;4.55;;;3.80;;
31336;SDS011;22846;42.654;23.314;2024-03-08T03:03:04;3.78;;;3.40;;
31336;SDS011;22846;42.654;23.314;2024-03-08T03:05:30;4.32;;;3.50;;
31336;SDS011;22846;42.654;23.314;2024-03-08T03:07:55;4.35;;;3.50;;
31336;SDS011;22846;42.654;23.314;2024-03-08T03:10:21;4.20;;;3.38;;
31336;SDS011;22846;42.654;23.314;2024-03-08T03:12:47;3.47;;;3.00;;
31336;SDS011;22846;42.654;23.314;2024-03-08T03:15:16;3.25;;;2.95;;
31336;SDS011;22846;42.654;23.314;2024-03-08T03:17:45;4.07;;;3.10;;
31336;SDS011;22846;42.654;23.314;2024-03-08T03:20:15;3.60;;;3.00;;
31336;SDS011;22846;42.654;23.314;2024-03-08T03:22:47;3.50;;;3.00;;
31336;SDS011;22846;42.654;23.314;2024-03-08T03:25:17;4.75;;;3.25;;
31336;SDS011;22846;42.654;23.314;2024-03-08T03:27:54;3.05;;;2.72;;
31336;SDS011;22846;42.654;23.314;2024-03-08T03:30:25;3.05;;;2.60;;
31336;SDS011;22846;42.654;23.314;2024-03-08T03:32:58;3.30;;;3.00;;
31336;SDS011;22846;42.654;23.314;2024-03-08T03:35:25;3.50;;;2.80;;
31336;SDS011;22846;42.654;23.314;2024-03-08T03:37:54;3.60;;;3.10;;
31336;SDS011;22846;42.654;23.314;2024-03-08T03:40:32;4.15;;;2.92;;
31336;SDS011;22846;42.654;23.314;2024-03-08T03:43:01;3.35;;;2.92;;
31336;SDS011;22846;42.654;23.314;2024-03-08T03:45:28;3.22;;;2.75;;
31336;SDS011;22846;42.654;23.314;2024-03-08T03:47:53;2.88;;;2.60;;
31336;SDS011;22846;42.654;23.314;2024-03-08T03:50:19;3.47;;;2.65;;
31336;SDS011;22846;42.654;23.314;2024-03-08T03:52:48;2.97;;;2.42;;
31336;SDS011;22846;42.654;23.314;2024-03-08T03:55:13;3.35;;;2.72;;
31336;SDS011;22846;42.654;23.314;2024-03-08T03:57:40;2.92;;;2.40;;
31336;SDS011;22846;42.654;23.314;2024-03-08T04:00:06;3.78;;;2.67;;
31336;SDS011;22846;42.654;23.314;2024-03-08T04:02:35;3.03;;;2.38;;
31336;SDS011;22846;42.654;23.314;2024-03-08T04:05:04;2.47;;;2.22;;
31336;SDS011;22846;42.654;23.314;2024-03-08T04:07:31;2.80;;;2.45;;
31336;SDS011;22846;42.654;23.314;2024-03-08T04:09:57;2.70;;;2.40;;
31336;SDS011;22846;42.654;23.314;2024-03-08T04:12:22;2.40;;;2.20;;
31336;SDS011;22846;42.654;23.314;2024-03-08T04:14:48;2.40;;;2.20;;
31336;SDS011;22846;42.654;23.314;2024-03-08T04:17:13;2.42;;;2.20;;
31336;SDS011;22846;42.654;23.314;2024-03-08T04:19:39;2.58;;;2.20;;
31336;SDS011;22846;42.654;23.314;2024-03-08T04:22:05;2.40;;;2.20;;
31336;SDS011;22846;42.654;23.314;2024-03-08T04:24:32;2.33;;;2.00;;
31336;SDS011;22846;42.654;23.314;2024-03-08T04:26:58;4.82;;;2.03;;
31336;SDS011;22846;42.654;23.314;2024-03-08T04:29:24;2.28;;;1.98;;
31336;SDS011;22846;42.654;23.314;2024-03-08T04:31:49;2.28;;;2.03;;
31336;SDS011;22846;42.654;23.314;2024-03-08T04:34:14;2.47;;;1.98;;
31336;SDS011;22846;42.654;23.314;2024-03-08T04:36:40;2.40;;;1.80;;
31336;SDS011;22846;42.654;23.314;2024-03-08T04:39:05;2.22;;;2.03;;
31336;SDS011;22846;42.654;23.314;2024-03-08T04:41:31;2.58;;;2.17;;
31336;SDS011;22846;42.654;23.314;2024-03-08T04:43:59;2.47;;;2.00;;
31336;SDS011;22846;42.654;23.314;2024-03-08T04:46:24;2.08;;;1.80;;
31336;SDS011;22846;42.654;23.314;2024-03-08T04:48:50;2.58;;;2.10;;
31336;SDS011;22846;42.654;23.314;2024-03-08T04:51:15;2.15;;;1.75;;
31336;SDS011;22846;42.654;23.314;2024-03-08T04:53:41;1.77;;;1.55;;
31336;SDS011;22846;42.654;23.314;2024-03-08T04:56:06;2.00;;;1.77;;
31336;SDS011;22846;42.654;23.314;2024-03-08T04:58:33;2.30;;;1.90;;
31336;SDS011;22846;42.654;23.314;2024-03-08T05:01:00;1.63;;;1.45;;
31336;SDS011;22846;42.654;23.314;2024-03-08T05:03:26;2.00;;;1.65;;
31336;SDS011;22846;42.654;23.314;2024-03-08T05:05:52;2.08;;;1.80;;
31336;SDS011;22846;42.654;23.314;2024-03-08T05:08:18;1.50;;;1.40;;
31336;SDS011;22846;42.654;23.314;2024-03-08T05:10:44;1.92;;;1.60;;
31336;SDS011;22846;42.654;23.314;2024-03-08T05:13:10;6.22;;;1.73;;
31336;SDS011;22846;42.654;23.314;2024-03-08T05:15:35;1.80;;;1.40;;
31336;SDS011;22846;42.654;23.314;2024-03-08T05:18:01;1.83;;;1.40;;
31336;SDS011;22846;42.654;23.314;2024-03-08T05:20:27;6.13;;;2.75;;
31336;SDS011;22846;42.654;23.314;2024-03-08T05:22:52;8.20;;;4.75;;
31336;SDS011;22846;42.654;23.314;2024-03-08T05:25:18;8.73;;;4.00;;
31336;SDS011;22846;42.654;23.314;2024-03-08T05:27:43;7.57;;;4.18;;
31336;SDS011;22846;42.654;23.314;2024-03-08T05:30:08;7.28;;;3.25;;
31336;SDS011;22846;42.654;23.314;2024-03-08T05:32:40;4.82;;;2.90;;
31336;SDS011;22846;42.654;23.314;2024-03-08T05:35:09;11.32;;;5.15;;
31336;SDS011;22846;42.654;23.314;2024-03-08T05:37:41;6.13;;;3.53;;
31336;SDS011;22846;42.654;23.314;2024-03-08T05:40:09;10.40;;;3.97;;
31336;SDS011;22846;42.654;23.314;2024-03-08T05:42:35;7.70;;;3.42;;
31336;SDS011;22846;42.654;23.314;2024-03-08T05:45:01;16.77;;;4.53;;
31336;SDS011;22846;42.654;23.314;2024-03-08T05:47:31;10.90;;;3.80;;
31336;SDS011;22846;42.654;23.314;2024-03-08T05:49:57;8.88;;;3.30;;
31336;SDS011;22846;42.654;23.314;2024-03-08T05:52:24;8.00;;;3.58;;
31336;SDS011;22846;42.654;23.314;2024-03-08T05:54:50;8.07;;;3.42;;
31336;SDS011;22846;42.654;23.314;2024-03-08T05:57:16;6.70;;;3.10;;
31336;SDS011;22846;42.654;23.314;2024-03-08T05:59:42;5.60;;;3.13;;
31336;SDS011;22846;42.654;23.314;2024-03-08T06:02:07;4.43;;;2.70;;
31336;SDS011;22846;42.654;23.314;2024-03-08T06:04:32;7.38;;;3.13;;
31336;SDS011;22846;42.654;23.314;2024-03-08T06:06:58;8.57;;;3.65;;
31336;SDS011;22846;42.654;23.314;2024-03-08T06:09:24;8.52;;;3.60;;
31336;SDS011;22846;42.654;23.314;2024-03-08T06:11:51;9.73;;;4.00;;
31336;SDS011;22846;42.654;23.314;2024-03-08T06:14:17;6.72;;;3.50;;
31336;SDS011;22846;42.654;23.314;2024-03-08T06:16:44;7.82;;;3.72;;
31336;SDS011;22846;42.654;23.314;2024-03-08T06:19:10;7.10;;;3.80;;
31336;SDS011;22846;42.654;23.314;2024-03-08T06:21:35;12.20;;;3.88;;
31336;SDS011;22846;42.654;23.314;2024-03-08T06:24:01;6.13;;;3.22;;
31336;SDS011;22846;42.654;23.314;2024-03-08T06:26:27;7.65;;;3.70;;
31336;SDS011;22846;42.654;23.314;2024-03-08T06:28:53;7.75;;;3.40;;
31336;SDS011;22846;42.654;23.314;2024-03-08T06:31:19;17.45;;;9.90;;
31336;SDS011;22846;42.654;23.314;2024-03-08T06:33:45;69.70;;;45.28;;
31336;SDS011;22846;42.654;23.314;2024-03-08T06:36:13;80.97;;;56.38;;
31336;SDS011;22846;42.654;23.314;2024-03-08T06:38:44;74.70;;;53.50;;
31336;SDS011;22846;42.654;23.314;2024-03-08T06:41:13;68.03;;;47.85;;
31336;SDS011;22846;42.654;23.314;2024-03-08T06:43:46;64.90;;;46.63;;
31336;SDS011;22846;42.654;23.314;2024-03-08T06:46:14;60.17;;;41.60;;
31336;SDS011;22846;42.654;23.314;2024-03-08T06:48:40;63.63;;;42.90;;
31336;SDS011;22846;42.654;23.314;2024-03-08T06:51:05;54.83;;;39.38;;
31336;SDS011;22846;42.654;23.314;2024-03-08T06:53:31;55.80;;;38.50;;
31336;SDS011;22846;42.654;23.314;2024-03-08T06:55:57;52.17;;;37.83;;
31336;SDS011;22846;42.654;23.314;2024-03-08T06:58:23;54.70;;;37.75;;
31336;SDS011;22846;42.654;23.314;2024-03-08T07:00:48;48.60;;;34.30;;
31336;SDS011;22846;42.654;23.314;2024-03-08T07:03:17;49.10;;;33.58;;
31336;SDS011;22846;42.654;23.314;2024-03-08T07:05:43;47.53;;;33.15;;
31336;SDS011;22846;42.654;23.314;2024-03-08T07:08:08;40.03;;;28.08;;
31336;SDS011;22846;42.654;23.314;2024-03-08T07:10:34;38.45;;;28.20;;
31336;SDS011;22846;42.654;23.314;2024-03-08T07:13:02;85.82;;;59.17;;
31336;SDS011;22846;42.654;23.314;2024-03-08T07:15:27;127.18;;;86.00;;
31336;SDS011;22846;42.654;23.314;2024-03-08T07:17:53;99.07;;;70.82;;
31336;SDS011;22846;42.654;23.314;2024-03-08T07:20:19;102.93;;;70.57;;
31336;SDS011;22846;42.654;23.314;2024-03-08T07:22:48;94.97;;;59.17;;
31336;SDS011;22846;42.654;23.314;2024-03-08T07:25:24;26.90;;;15.98;;
31336;SDS011;22846;42.654;23.314;2024-03-08T07:27:54;19.23;;;12.63;;
31336;SDS011;22846;42.654;23.314;2024-03-08T07:30:21;26.02;;;17.98;;
31336;SDS011;22846;42.654;23.314;2024-03-08T07:33:06;34.10;;;22.95;;
31336;SDS011;22846;42.654;23.314;2024-03-08T07:35:32;32.35;;;22.33;;
31336;SDS011;22846;42.654;23.314;2024-03-08T07:37:58;26.55;;;20.08;;
31336;SDS011;22846;42.654;23.314;2024-03-08T07:40:27;27.40;;;19.00;;
31336;SDS011;22846;42.654;23.314;2024-03-08T07:42:53;28.77;;;18.65;;
31336;SDS011;22846;42.654;23.314;2024-03-08T07:45:18;30.35;;;20.52;;
31336;SDS011;22846;42.654;23.314;2024-03-08T07:47:43;25.05;;;17.90;;
31336;SDS011;22846;42.654;23.314;2024-03-08T07:50:09;72.82;;;37.65;;
31336;SDS011;22846;42.654;23.314;2024-03-08T07:52:35;36.20;;;22.08;;
31336;SDS011;22846;42.654;23.314;2024-03-08T07:55:02;32.97;;;19.30;;
31336;SDS011;22846;42.654;23.314;2024-03-08T07:57:32;44.28;;;19.02;;
31336;SDS011;22846;42.654;23.314;2024-03-08T07:59:58;35.80;;;19.40;;
31336;SDS011;22846;42.654;23.314;2024-03-08T08:05:10;193.00;;;96.30;;
31336;SDS011;22846;42.654;23.314;2024-03-08T08:07:36;110.97;;;57.72;;
31336;SDS011;22846;42.654;23.314;2024-03-08T08:10:01;61.88;;;33.42;;
31336;SDS011;22846;42.654;23.314;2024-03-08T08:12:27;55.95;;;30.65;;
31336;SDS011;22846;42.654;23.314;2024-03-08T08:14:59;55.28;;;29.80;;
31336;SDS011;22846;42.654;23.314;2024-03-08T08:17:45;53.63;;;30.65;;
31336;SDS011;22846;42.654;23.314;2024-03-08T08:20:25;45.72;;;26.77;;
31336;SDS011;22846;42.654;23.314;2024-03-08T08:23:33;46.40;;;25.58;;
31336;SDS011;22846;42.654;23.314;2024-03-08T08:26:00;51.53;;;26.85;;
31336;SDS011;22846;42.654;23.314;2024-03-08T08:28:31;43.83;;;26.25;;
31336;SDS011;22846;42.654;23.314;2024-03-08T08:31:34;85.00;;;55.00;;
31336;SDS011;22846;42.654;23.314;2024-03-08T08:56:57;74.30;;;46.92;;
31336;SDS011;22846;42.654;23.314;2024-03-08T09:02:56;46.85;;;29.40;;
31336;SDS011;22846;42.654;23.314;2024-03-08T09:05:25;46.10;;;27.45;;
31336;SDS011;22846;42.654;23.314;2024-03-08T09:08:47;47.22;;;28.42;;
31336;SDS011;22846;42.654;23.314;2024-03-08T09:11:07;40.72;;;25.90;;
31336;SDS011;22846;42.654;23.314;2024-03-08T09:13:33;42.55;;;27.25;;
31336;SDS011;22846;42.654;23.314;2024-03-08T09:26:08;45.38;;;30.52;;
31336;SDS011;22846;42.654;23.314;2024-03-08T09:29:13;41.50;;;28.05;;
31336;SDS011;22846;42.654;23.314;2024-03-08T09:34:35;46.25;;;28.95;;
31336;SDS011;22846;42.654;23.314;2024-03-08T09:37:01;42.40;;;28.48;;
31336;SDS011;22846;42.654;23.314;2024-03-08T09:39:29;30.40;;;19.85;;
31336;SDS011;22846;42.654;23.314;2024-03-08T09:41:55;24.95;;;15.48;;
31336;SDS011;22846;42.654;23.314;2024-03-08T09:44:21;29.45;;;19.67;;
31336;SDS011;22846;42.654;23.314;2024-03-08T09:47:00;30.38;;;19.25;;
31336;SDS011;22846;42.654;23.314;2024-03-08T09:49:29;32.63;;;20.67;;
31336;SDS011;22846;42.654;23.314;2024-03-08T09:51:55;29.95;;;20.65;;
31336;SDS011;22846;42.654;23.314;2024-03-08T09:54:21;29.40;;;20.02;;
31336;SDS011;22846;42.654;23.314;2024-03-08T09:56:47;28.48;;;18.88;;
31336;SDS011;22846;42.654;23.314;2024-03-08T09:59:16;26.98;;;18.52;;
31336;SDS011;22846;42.654;23.314;2024-03-08T10:01:48;26.45;;;18.83;;
31336;SDS011;22846;42.654;23.314;2024-03-08T10:04:13;30.10;;;19.02;;
31336;SDS011;22846;42.654;23.314;2024-03-08T10:06:39;27.25;;;18.67;;
31336;SDS011;22846;42.654;23.314;2024-03-08T10:09:05;25.85;;;18.25;;
31336;SDS011;22846;42.654;23.314;2024-03-08T10:11:33;27.20;;;19.00;;
31336;SDS011;22846;42.654;23.314;2024-03-08T10:14:00;27.13;;;18.40;;
31336;SDS011;22846;42.654;23.314;2024-03-08T10:16:29;25.75;;;17.30;;
31336;SDS011;22846;42.654;23.314;2024-03-08T10:18:57;25.77;;;17.98;;
31336;SDS011;22846;42.654;23.314;2024-03-08T10:21:23;25.55;;;16.92;;
31336;SDS011;22846;42.654;23.314;2024-03-08T10:23:51;24.02;;;16.20;;
31336;SDS011;22846;42.654;23.314;2024-03-08T10:26:20;30.48;;;19.70;;
31336;SDS011;22846;42.654;23.314;2024-03-08T10:28:50;41.20;;;29.42;;
31336;SDS011;22846;42.654;23.314;2024-03-08T10:31:17;49.92;;;33.95;;
31336;SDS011;22846;42.654;23.314;2024-03-08T10:33:44;55.10;;;39.10;;
31336;SDS011;22846;42.654;23.314;2024-03-08T10:36:11;41.55;;;28.27;;
31336;SDS011;22846;42.654;23.314;2024-03-08T10:38:38;49.50;;;35.17;;
31336;SDS011;22846;42.654;23.314;2024-03-08T10:41:09;54.47;;;36.40;;
31336;SDS011;22846;42.654;23.314;2024-03-08T10:43:41;56.30;;;38.50;;
31336;SDS011;22846;42.654;23.314;2024-03-08T10:49:25;54.22;;;37.35;;
31336;SDS011;22846;42.654;23.314;2024-03-08T10:51:54;53.78;;;37.10;;
31336;SDS011;22846;42.654;23.314;2024-03-08T10:54:20;41.35;;;30.23;;
31336;SDS011;22846;42.654;23.314;2024-03-08T10:56:47;41.70;;;28.17;;
31336;SDS011;22846;42.654;23.314;2024-03-08T10:59:13;45.60;;;32.83;;
31336;SDS011;22846;42.654;23.314;2024-03-08T11:01:40;44.17;;;31.60;;
31336;SDS011;22846;42.654;23.314;2024-03-08T11:04:05;43.53;;;29.58;;
31336;SDS011;22846;42.654;23.314;2024-03-08T11:09:02;38.08;;;26.42;;
31336;SDS011;22846;42.654;23.314;2024-03-08T11:11:29;40.55;;;27.00;;
31336;SDS011;22846;42.654;23.314;2024-03-08T11:14:00;41.75;;;27.98;;
31336;SDS011;22846;42.654;23.314;2024-03-08T11:18:59;37.58;;;25.50;;
31336;SDS011;22846;42.654;23.314;2024-03-08T11:21:29;37.95;;;24.70;;
31336;SDS011;22846;42.654;23.314;2024-03-08T11:24:06;37.10;;;24.80;;
31336;SDS011;22846;42.654;23.314;2024-03-08T11:26:33;36.38;;;23.98;;
31336;SDS011;22846;42.654;23.314;2024-03-08T11:29:46;34.53;;;23.50;;
31336;SDS011;22846;42.654;23.314;2024-03-08T11:34:32;30.63;;;21.77;;
31336;SDS011;22846;42.654;23.314;2024-03-08T11:36:58;33.58;;;22.58;;
31336;SDS011;22846;42.654;23.314;2024-03-08T11:39:24;32.15;;;22.33;;
31336;SDS011;22846;42.654;23.314;2024-03-08T11:41:50;31.25;;;21.92;;
31336;SDS011;22846;42.654;23.314;2024-03-08T11:44:16;29.45;;;21.27;;
31336;SDS011;22846;42.654;23.314;2024-03-08T11:46:42;28.88;;;20.98;;
31336;SDS011;22846;42.654;23.314;2024-03-08T11:49:12;29.90;;;20.88;;
31336;SDS011;22846;42.654;23.314;2024-03-08T11:51:41;27.67;;;20.10;;
31336;SDS011;22846;42.654;23.314;2024-03-08T11:54:11;28.95;;;20.52;;
31336;SDS011;22846;42.654;23.314;2024-03-08T11:56:40;28.98;;;18.80;;
31336;SDS011;22846;42.654;23.314;2024-03-08T11:59:10;28.05;;;19.30;;
31336;SDS011;22846;42.654;23.314;2024-03-08T12:01:37;26.67;;;19.23;;
31336;SDS011;22846;42.654;23.314;2024-03-08T12:04:03;23.70;;;17.70;;
31336;SDS011;22846;42.654;23.314;2024-03-08T12:06:38;29.40;;;18.92;;
31336;SDS011;22846;42.654;23.314;2024-03-08T12:09:07;23.92;;;17.83;;
31336;SDS011;22846;42.654;23.314;2024-03-08T12:11:34;24.15;;;16.98;;
31336;SDS011;22846;42.654;23.314;2024-03-08T12:14:01;39.92;;;18.98;;
31336;SDS011;22846;42.654;23.314;2024-03-08T12:16:26;31.58;;;18.27;;
31336;SDS011;22846;42.654;23.314;2024-03-08T12:18:52;27.38;;;17.45;;
31336;SDS011;22846;42.654;23.314;2024-03-08T12:21:21;24.80;;;16.10;;
31336;SDS011;22846;42.654;23.314;2024-03-08T12:24:00;24.58;;;16.42;;
31336;SDS011;22846;42.654;23.314;2024-03-08T12:26:34;12.13;;;7.38;;
31336;SDS011;22846;42.654;23.314;2024-03-08T12:29:17;15.50;;;4.93;;
31336;SDS011;22846;42.654;23.314;2024-03-08T12:31:47;19.50;;;8.98;;
31336;SDS011;22846;42.654;23.314;2024-03-08T12:34:17;19.70;;;6.72;;
31336;SDS011;22846;42.654;23.314;2024-03-08T12:36:46;35.35;;;11.18;;
31336;SDS011;22846;42.654;23.314;2024-03-08T12:39:18;16.33;;;5.95;;
31336;SDS011;22846;42.654;23.314;2024-03-08T12:41:47;12.63;;;6.53;;
31336;SDS011;22846;42.654;23.314;2024-03-08T12:44:14;12.48;;;6.63;;
31336;SDS011;22846;42.654;23.314;2024-03-08T12:46:40;16.88;;;9.27;;
31336;SDS011;22846;42.654;23.314;2024-03-08T12:52:29;57.10;;;35.45;;
31336;SDS011;22846;42.654;23.314;2024-03-08T12:54:55;53.35;;;34.08;;
31336;SDS011;22846;42.654;23.314;2024-03-08T12:57:32;37.78;;;22.75;;
31336;SDS011;22846;42.654;23.314;2024-03-08T13:00:00;50.70;;;33.55;;
31336;SDS011;22846;42.654;23.314;2024-03-08T13:02:28;47.67;;;31.05;;
31336;SDS011;22846;42.654;23.314;2024-03-08T13:04:55;45.97;;;31.00;;
31336;SDS011;22846;42.654;23.314;2024-03-08T13:07:22;40.25;;;26.90;;
31336;SDS011;22846;42.654;23.314;2024-03-08T13:09:55;34.42;;;23.27;;
31336;SDS011;22846;42.654;23.314;2024-03-08T13:12:22;38.25;;;22.25;;
31336;SDS011;22846;42.654;23.314;2024-03-08T13:14:53;28.70;;;19.00;;
31336;SDS011;22846;42.654;23.314;2024-03-08T13:17:22;81.18;;;52.53;;
31336;SDS011;22846;42.654;23.314;2024-03-08T13:19:52;57.28;;;36.08;;
31336;SDS011;22846;42.654;23.314;2024-03-08T13:22:22;50.95;;;34.15;;
31336;SDS011;22846;42.654;23.314;2024-03-08T13:24:49;56.13;;;37.72;;
31336;SDS011;22846;42.654;23.314;2024-03-08T13:27:15;55.47;;;36.78;;
31336;SDS011;22846;42.654;23.314;2024-03-08T13:29:49;52.75;;;34.63;;
31336;SDS011;22846;42.654;23.314;2024-03-08T13:32:16;54.78;;;35.28;;
31336;SDS011;22846;42.654;23.314;2024-03-08T13:37:49;49.22;;;31.27;;
31336;SDS011;22846;42.654;23.314;2024-03-08T13:40:14;49.25;;;30.55;;
31336;SDS011;22846;42.654;23.314;2024-03-08T13:42:41;43.67;;;30.25;;
31336;SDS011;22846;42.654;23.314;2024-03-08T13:45:08;47.17;;;31.50;;
31336;SDS011;22846;42.654;23.314;2024-03-08T13:47:40;40.85;;;28.90;;
31336;SDS011;22846;42.654;23.314;2024-03-08T13:50:08;40.80;;;27.70;;
31336;SDS011;22846;42.654;23.314;2024-03-08T13:52:38;43.00;;;29.05;;
31336;SDS011;22846;42.654;23.314;2024-03-08T13:55:07;43.72;;;27.73;;
31336;SDS011;22846;42.654;23.314;2024-03-08T13:57:33;39.40;;;26.98;;
31336;SDS011;22846;42.654;23.314;2024-03-08T13:59:58;40.38;;;27.13;;
31336;SDS011;22846;42.654;23.314;2024-03-08T14:02:24;36.45;;;25.63;;
31336;SDS011;22846;42.654;23.314;2024-03-08T14:04:53;33.28;;;22.92;;
31336;SDS011;22846;42.654;23.314;2024-03-08T14:07:19;30.23;;;22.17;;
31336;SDS011;22846;42.654;23.314;2024-03-08T14:09:45;30.60;;;21.23;;
31336;SDS011;22846;42.654;23.314;2024-03-08T14:12:11;27.67;;;20.27;;
31336;SDS011;22846;42.654;23.314;2024-03-08T14:14:36;27.42;;;19.55;;
31336;SDS011;22846;42.654;23.314;2024-03-08T14:17:02;27.83;;;19.95;;
31336;SDS011;22846;42.654;23.314;2024-03-08T14:19:28;25.77;;;18.55;;
31336;SDS011;22846;42.654;23.314;2024-03-08T14:21:55;24.08;;;17.50;;
31336;SDS011;22846;42.654;23.314;2024-03-08T14:24:21;24.50;;;18.25;;
31336;SDS011;22846;42.654;23.314;2024-03-08T14:26:47;24.40;;;17.75;;
31336;SDS011;22846;42.654;23.314;2024-03-08T14:29:14;23.27;;;16.80;;
31336;SDS011;22846;42.654;23.314;2024-03-08T14:31:40;24.55;;;16.90;;
31336;SDS011;22846;42.654;23.314;2024-03-08T14:34:06;20.70;;;15.88;;
31336;SDS011;22846;42.654;23.314;2024-03-08T14:36:32;20.08;;;15.00;;
31336;SDS011;22846;42.654;23.314;2024-03-08T14:41:46;20.23;;;15.18;;
31336;SDS011;22846;42.654;23.314;2024-03-08T14:44:21;19.23;;;14.33;;
31336;SDS011;22846;42.654;23.314;2024-03-08T14:46:51;26.13;;;14.35;;
31336;SDS011;22846;42.654;23.314;2024-03-08T14:49:17;26.42;;;12.82;;
31336;SDS011;22846;42.654;23.314;2024-03-08T14:51:44;27.90;;;13.52;;
31336;SDS011;22846;42.654;23.314;2024-03-08T14:54:10;32.63;;;12.73;;
31336;SDS011;22846;42.654;23.314;2024-03-08T14:56:36;18.60;;;11.90;;
31336;SDS011;22846;42.654;23.314;2024-03-08T14:59:02;19.13;;;12.15;;
31336;SDS011;22846;42.654;23.314;2024-03-08T15:01:30;30.83;;;10.93;;
31336;SDS011;22846;42.654;23.314;2024-03-08T15:03:58;20.20;;;11.00;;
31336;SDS011;22846;42.654;23.314;2024-03-08T15:06:28;25.27;;;12.50;;
31336;SDS011;22846;42.654;23.314;2024-03-08T15:08:56;17.92;;;10.73;;
31336;SDS011;22846;42.654;23.314;2024-03-08T15:11:22;38.97;;;16.98;;
31336;SDS011;22846;42.654;23.314;2024-03-08T15:13:50;44.58;;;30.75;;
31336;SDS011;22846;42.654;23.314;2024-03-08T15:16:18;55.25;;;38.60;;
31336;SDS011;22846;42.654;23.314;2024-03-08T15:18:45;59.38;;;37.78;;
31336;SDS011;22846;42.654;23.314;2024-03-08T15:21:13;51.10;;;35.60;;
31336;SDS011;22846;42.654;23.314;2024-03-08T15:23:52;46.22;;;30.30;;